sensor_id;sensor_type;location;lat;lon;timestamp;P1;durP1;ratioP1;P2;durP2;ratioP2
63653;SDS011;49809;47.418;19.080;2023-04-06T00:06:41;6.00;;;1.85;;
63653;SDS011;49809;47.418;19.080;2023-04-06T00:10:18;1.67;;;1.37;;
63653;SDS011;49809;47.418;19.080;2023-04-06T00:13:54;1.37;;;1.27;;
63653;SDS011;49809;47.418;19.080;2023-04-06T00:17:40;1.77;;;1.62;;
63653;SDS011;49809;47.418;19.080;2023-04-06T00:25:16;4.55;;;2.00;;
63653;SDS011;49809;47.418;19.080;2023-04-06T01:48:02;1.10;;;0.98;;
63653;SDS011;49809;47.418;19.080;2023-04-06T01:51:37;2.92;;;1.62;;
63653;SDS011;49809;47.418;19.080;2023-04-06T01:55:05;4.50;;;2.25;;
63653;SDS011;49809;47.418;19.080;2023-04-06T01:58:24;3.25;;;1.25;;
63653;SDS011;49809;47.418;19.080;2023-04-06T02:01:42;2.00;;;1.52;;
63653;SDS011;49809;47.418;19.080;2023-04-06T02:05:08;7.82;;;2.03;;
63653;SDS011;49809;47.418;19.080;2023-04-06T02:08:41;1.10;;;1.00;;
63653;SDS011;49809;47.418;19.080;2023-04-06T02:12:27;2.70;;;1.83;;
63653;SDS011;49809;47.418;19.080;2023-04-06T02:15:59;2.22;;;1.58;;
63653;SDS011;49809;47.418;19.080;2023-04-06T02:19:53;1.87;;;1.17;;
63653;SDS011;49809;47.418;19.080;2023-04-06T02:23:33;1.00;;;1.00;;
63653;SDS011;49809;47.418;19.080;2023-04-06T02:27:13;1.27;;;1.12;;
63653;SDS011;49809;47.418;19.080;2023-04-06T02:30:57;2.15;;;1.08;;
63653;SDS011;49809;47.418;19.080;2023-04-06T02:34:20;3.45;;;1.58;;
63653;SDS011;49809;47.418;19.080;2023-04-06T02:38:29;1.12;;;1.00;;
63653;SDS011;49809;47.418;19.080;2023-04-06T02:41:57;5.80;;;1.83;;
63653;SDS011;49809;47.418;19.080;2023-04-06T02:45:39;1.40;;;1.27;;
63653;SDS011;49809;47.418;19.080;2023-04-06T02:49:23;1.40;;;1.17;;
63653;SDS011;49809;47.418;19.080;2023-04-06T02:53:07;2.92;;;2.05;;
63653;SDS011;49809;47.418;19.080;2023-04-06T02:56:42;3.65;;;1.67;;
63653;SDS011;49809;47.418;19.080;2023-04-06T03:04:13;2.90;;;1.67;;
63653;SDS011;49809;47.418;19.080;2023-04-06T03:08:00;2.12;;;1.85;;
63653;SDS011;49809;47.418;19.080;2023-04-06T03:11:29;1.30;;;1.00;;
63653;SDS011;49809;47.418;19.080;2023-04-06T03:15:05;2.60;;;1.33;;
63653;SDS011;49809;47.418;19.080;2023-04-06T03:18:47;1.73;;;1.62;;
63653;SDS011;49809;47.418;19.080;2023-04-06T03:22:10;1.75;;;1.62;;
63653;SDS011;49809;47.418;19.080;2023-04-06T03:25:50;1.65;;;1.52;;
63653;SDS011;49809;47.418;19.080;2023-04-06T03:29:19;3.35;;;2.35;;
63653;SDS011;49809;47.418;19.080;2023-04-06T03:32:39;2.65;;;1.48;;
63653;SDS011;49809;47.418;19.080;2023-04-06T03:36:17;1.92;;;1.52;;
63653;SDS011;49809;47.418;19.080;2023-04-06T03:43:40;1.85;;;1.08;;
63653;SDS011;49809;47.418;19.080;2023-04-06T03:46:44;1.95;;;1.45;;
63653;SDS011;49809;47.418;19.080;2023-04-06T03:50:29;1.75;;;1.45;;
63653;SDS011;49809;47.418;19.080;2023-04-06T03:53:54;2.33;;;1.50;;
63653;SDS011;49809;47.418;19.080;2023-04-06T03:57:16;1.33;;;1.23;;
63653;SDS011;49809;47.418;19.080;2023-04-06T04:01:02;1.85;;;1.40;;
63653;SDS011;49809;47.418;19.080;2023-04-06T04:04:40;1.37;;;1.10;;
63653;SDS011;49809;47.418;19.080;2023-04-06T04:08:05;13.62;;;2.53;;
63653;SDS011;49809;47.418;19.080;2023-04-06T04:11:51;7.12;;;2.53;;
63653;SDS011;49809;47.418;19.080;2023-04-06T04:15:09;2.15;;;1.52;;
63653;SDS011;49809;47.418;19.080;2023-04-06T04:21:43;2.05;;;1.52;;
63653;SDS011;49809;47.418;19.080;2023-04-06T04:25:24;3.90;;;2.53;;
63653;SDS011;49809;47.418;19.080;2023-04-06T04:28:50;5.07;;;2.80;;
63653;SDS011;49809;47.418;19.080;2023-04-06T04:32:10;3.12;;;1.90;;
63653;SDS011;49809;47.418;19.080;2023-04-06T04:35:28;1.37;;;1.27;;
63653;SDS011;49809;47.418;19.080;2023-04-06T04:39:07;4.75;;;2.20;;
63653;SDS011;49809;47.418;19.080;2023-04-06T04:42:37;3.12;;;2.85;;
63653;SDS011;49809;47.418;19.080;2023-04-06T04:46:22;4.62;;;1.75;;
63653;SDS011;49809;47.418;19.080;2023-04-06T04:49:39;3.05;;;2.65;;
63653;SDS011;49809;47.418;19.080;2023-04-06T04:53:08;1.55;;;1.30;;
63653;SDS011;49809;47.418;19.080;2023-04-06T04:56:56;13.82;;;3.70;;
63653;SDS011;49809;47.418;19.080;2023-04-06T05:00:16;2.70;;;2.45;;
63653;SDS011;49809;47.418;19.080;2023-04-06T05:03:36;4.45;;;2.42;;
63653;SDS011;49809;47.418;19.080;2023-04-06T05:07:10;2.92;;;2.20;;
63653;SDS011;49809;47.418;19.080;2023-04-06T05:10:45;3.50;;;2.42;;
63653;SDS011;49809;47.418;19.080;2023-04-06T05:14:04;3.08;;;2.00;;
63653;SDS011;49809;47.418;19.080;2023-04-06T05:17:32;5.20;;;1.95;;
63653;SDS011;49809;47.418;19.080;2023-04-06T05:20:56;6.12;;;2.60;;
63653;SDS011;49809;47.418;19.080;2023-04-06T05:24:31;4.90;;;2.72;;
63653;SDS011;49809;47.418;19.080;2023-04-06T05:28:20;7.72;;;3.20;;
63653;SDS011;49809;47.418;19.080;2023-04-06T05:31:58;2.40;;;1.83;;
63653;SDS011;49809;47.418;19.080;2023-04-06T05:35:50;3.60;;;1.98;;
63653;SDS011;49809;47.418;19.080;2023-04-06T05:39:36;4.03;;;2.20;;
63653;SDS011;49809;47.418;19.080;2023-04-06T05:43:21;3.50;;;2.10;;
63653;SDS011;49809;47.418;19.080;2023-04-06T05:46:46;6.00;;;2.55;;
63653;SDS011;49809;47.418;19.080;2023-04-06T05:50:49;8.48;;;2.55;;
63653;SDS011;49809;47.418;19.080;2023-04-06T05:54:42;3.70;;;2.03;;
63653;SDS011;49809;47.418;19.080;2023-04-06T05:58:26;6.97;;;2.62;;
63653;SDS011;49809;47.418;19.080;2023-04-06T06:01:52;4.70;;;2.70;;
63653;SDS011;49809;47.418;19.080;2023-04-06T06:05:00;6.57;;;2.30;;
63653;SDS011;49809;47.418;19.080;2023-04-06T06:08:11;6.85;;;3.30;;
63653;SDS011;49809;47.418;19.080;2023-04-06T06:11:20;8.38;;;3.15;;
63653;SDS011;49809;47.418;19.080;2023-04-06T06:14:26;4.07;;;2.58;;
63653;SDS011;49809;47.418;19.080;2023-04-06T06:17:32;3.58;;;2.22;;
63653;SDS011;49809;47.418;19.080;2023-04-06T06:20:43;3.05;;;2.58;;
63653;SDS011;49809;47.418;19.080;2023-04-06T06:23:49;3.50;;;3.00;;
63653;SDS011;49809;47.418;19.080;2023-04-06T06:27:26;4.35;;;3.17;;
63653;SDS011;49809;47.418;19.080;2023-04-06T06:30:50;7.55;;;2.65;;
63653;SDS011;49809;47.418;19.080;2023-04-06T06:34:14;4.03;;;2.87;;
63653;SDS011;49809;47.418;19.080;2023-04-06T06:37:45;3.40;;;3.10;;
63653;SDS011;49809;47.418;19.080;2023-04-06T06:40:55;5.05;;;3.53;;
63653;SDS011;49809;47.418;19.080;2023-04-06T06:44:35;6.95;;;2.90;;
63653;SDS011;49809;47.418;19.080;2023-04-06T06:47:44;4.72;;;2.75;;
63653;SDS011;49809;47.418;19.080;2023-04-06T06:51:03;6.93;;;2.85;;
63653;SDS011;49809;47.418;19.080;2023-04-06T06:54:08;5.40;;;3.10;;
63653;SDS011;49809;47.418;19.080;2023-04-06T06:57:26;7.43;;;3.30;;
63653;SDS011;49809;47.418;19.080;2023-04-06T07:00:38;6.47;;;3.60;;
63653;SDS011;49809;47.418;19.080;2023-04-06T07:07:32;4.68;;;2.87;;
63653;SDS011;49809;47.418;19.080;2023-04-06T07:10:38;4.43;;;2.45;;
63653;SDS011;49809;47.418;19.080;2023-04-06T07:13:42;5.67;;;3.03;;
63653;SDS011;49809;47.418;19.080;2023-04-06T07:16:47;6.65;;;3.30;;
63653;SDS011;49809;47.418;19.080;2023-04-06T07:20:11;5.90;;;2.85;;
63653;SDS011;49809;47.418;19.080;2023-04-06T07:23:37;4.32;;;2.17;;
63653;SDS011;49809;47.418;19.080;2023-04-06T07:26:42;4.53;;;2.70;;
63653;SDS011;49809;47.418;19.080;2023-04-06T07:29:48;5.05;;;2.37;;
63653;SDS011;49809;47.418;19.080;2023-04-06T07:32:52;6.43;;;2.90;;
63653;SDS011;49809;47.418;19.080;2023-04-06T07:36:06;4.90;;;2.97;;
63653;SDS011;49809;47.418;19.080;2023-04-06T07:39:44;4.53;;;2.50;;
63653;SDS011;49809;47.418;19.080;2023-04-06T07:42:50;4.72;;;2.85;;
63653;SDS011;49809;47.418;19.080;2023-04-06T07:45:54;3.28;;;1.98;;
63653;SDS011;49809;47.418;19.080;2023-04-06T07:49:01;4.25;;;2.50;;
63653;SDS011;49809;47.418;19.080;2023-04-06T07:52:37;5.00;;;2.00;;
63653;SDS011;49809;47.418;19.080;2023-04-06T07:55:48;5.68;;;3.03;;
63653;SDS011;49809;47.418;19.080;2023-04-06T07:58:55;4.78;;;2.58;;
63653;SDS011;49809;47.418;19.080;2023-04-06T08:02:03;6.03;;;2.85;;
63653;SDS011;49809;47.418;19.080;2023-04-06T08:05:07;6.30;;;2.95;;
63653;SDS011;49809;47.418;19.080;2023-04-06T08:08:11;6.82;;;3.00;;
63653;SDS011;49809;47.418;19.080;2023-04-06T08:11:18;4.80;;;2.87;;
63653;SDS011;49809;47.418;19.080;2023-04-06T08:14:21;5.70;;;3.75;;
63653;SDS011;49809;47.418;19.080;2023-04-06T08:17:26;3.70;;;2.22;;
63653;SDS011;49809;47.418;19.080;2023-04-06T08:20:33;4.60;;;2.72;;
63653;SDS011;49809;47.418;19.080;2023-04-06T08:23:57;7.80;;;3.05;;
63653;SDS011;49809;47.418;19.080;2023-04-06T08:26:59;6.22;;;3.15;;
63653;SDS011;49809;47.418;19.080;2023-04-06T08:30:06;4.62;;;3.47;;
63653;SDS011;49809;47.418;19.080;2023-04-06T08:33:12;4.47;;;2.50;;
63653;SDS011;49809;47.418;19.080;2023-04-06T08:36:17;6.87;;;3.78;;
63653;SDS011;49809;47.418;19.080;2023-04-06T08:39:24;5.55;;;3.50;;
63653;SDS011;49809;47.418;19.080;2023-04-06T08:42:31;10.48;;;3.72;;
63653;SDS011;49809;47.418;19.080;2023-04-06T08:45:41;5.72;;;3.40;;
63653;SDS011;49809;47.418;19.080;2023-04-06T08:48:49;5.68;;;2.87;;
63653;SDS011;49809;47.418;19.080;2023-04-06T09:00:07;6.80;;;3.28;;
63653;SDS011;49809;47.418;19.080;2023-04-06T09:03:48;7.85;;;3.72;;
63653;SDS011;49809;47.418;19.080;2023-04-06T09:07:16;9.90;;;3.72;;
63653;SDS011;49809;47.418;19.080;2023-04-06T09:10:42;5.50;;;3.35;;
63653;SDS011;49809;47.418;19.080;2023-04-06T09:14:03;9.77;;;3.70;;
63653;SDS011;49809;47.418;19.080;2023-04-06T09:17:51;7.07;;;3.28;;
63653;SDS011;49809;47.418;19.080;2023-04-06T09:21:28;7.22;;;3.83;;
63653;SDS011;49809;47.418;19.080;2023-04-06T09:25:02;6.55;;;3.35;;
63653;SDS011;49809;47.418;19.080;2023-04-06T09:28:48;8.00;;;3.28;;
63653;SDS011;49809;47.418;19.080;2023-04-06T09:32:26;4.97;;;2.85;;
63653;SDS011;49809;47.418;19.080;2023-04-06T09:36:11;5.55;;;2.85;;
63653;SDS011;49809;47.418;19.080;2023-04-06T09:39:41;6.70;;;3.28;;
63653;SDS011;49809;47.418;19.080;2023-04-06T09:42:45;8.68;;;3.55;;
63653;SDS011;49809;47.418;19.080;2023-04-06T09:45:51;6.35;;;3.35;;
63653;SDS011;49809;47.418;19.080;2023-04-06T09:48:55;4.55;;;2.95;;
63653;SDS011;49809;47.418;19.080;2023-04-06T09:52:03;8.02;;;3.30;;
63653;SDS011;49809;47.418;19.080;2023-04-06T09:55:12;4.72;;;3.17;;
63653;SDS011;49809;47.418;19.080;2023-04-06T09:58:47;6.12;;;3.37;;
63653;SDS011;49809;47.418;19.080;2023-04-06T10:02:50;7.10;;;3.17;;
63653;SDS011;49809;47.418;19.080;2023-04-06T10:06:19;7.60;;;3.40;;
63653;SDS011;49809;47.418;19.080;2023-04-06T10:09:53;6.12;;;3.58;;
63653;SDS011;49809;47.418;19.080;2023-04-06T10:13:02;4.97;;;3.37;;
63653;SDS011;49809;47.418;19.080;2023-04-06T10:16:51;7.03;;;3.10;;
63653;SDS011;49809;47.418;19.080;2023-04-06T10:20:36;5.45;;;3.37;;
63653;SDS011;49809;47.418;19.080;2023-04-06T10:23:55;8.02;;;3.62;;
63653;SDS011;49809;47.418;19.080;2023-04-06T10:27:33;9.52;;;3.75;;
63653;SDS011;49809;47.418;19.080;2023-04-06T10:31:30;5.18;;;2.97;;
63653;SDS011;49809;47.418;19.080;2023-04-06T10:35:04;7.70;;;3.75;;
63653;SDS011;49809;47.418;19.080;2023-04-06T10:38:40;6.62;;;3.60;;
63653;SDS011;49809;47.418;19.080;2023-04-06T10:42:23;5.60;;;3.50;;
63653;SDS011;49809;47.418;19.080;2023-04-06T10:45:38;6.57;;;3.42;;
63653;SDS011;49809;47.418;19.080;2023-04-06T10:49:39;5.62;;;3.37;;
63653;SDS011;49809;47.418;19.080;2023-04-06T10:53:08;7.00;;;3.47;;
63653;SDS011;49809;47.418;19.080;2023-04-06T11:00:32;7.07;;;3.60;;
63653;SDS011;49809;47.418;19.080;2023-04-06T11:04:12;9.50;;;4.00;;
63653;SDS011;49809;47.418;19.080;2023-04-06T11:07:39;5.68;;;3.20;;
63653;SDS011;49809;47.418;19.080;2023-04-06T11:11:17;4.78;;;3.40;;
63653;SDS011;49809;47.418;19.080;2023-04-06T11:14:37;5.68;;;3.12;;
63653;SDS011;49809;47.418;19.080;2023-04-06T11:18:06;6.18;;;3.85;;
63653;SDS011;49809;47.418;19.080;2023-04-06T11:21:37;4.90;;;3.40;;
63653;SDS011;49809;47.418;19.080;2023-04-06T11:25:30;4.95;;;3.00;;
63653;SDS011;49809;47.418;19.080;2023-04-06T11:29:08;4.87;;;3.40;;
63653;SDS011;49809;47.418;19.080;2023-04-06T11:32:20;4.12;;;2.62;;
63653;SDS011;49809;47.418;19.080;2023-04-06T11:35:26;8.10;;;3.20;;
63653;SDS011;49809;47.418;19.080;2023-04-06T11:38:29;4.65;;;3.00;;
63653;SDS011;49809;47.418;19.080;2023-04-06T11:41:33;4.85;;;2.95;;
63653;SDS011;49809;47.418;19.080;2023-04-06T11:44:57;8.65;;;4.07;;
63653;SDS011;49809;47.418;19.080;2023-04-06T11:48:25;5.00;;;3.30;;
63653;SDS011;49809;47.418;19.080;2023-04-06T11:52:00;5.32;;;2.90;;
63653;SDS011;49809;47.418;19.080;2023-04-06T12:02:50;4.45;;;2.85;;
63653;SDS011;49809;47.418;19.080;2023-04-06T12:06:31;6.68;;;3.17;;
63653;SDS011;49809;47.418;19.080;2023-04-06T12:13:59;7.35;;;4.05;;
63653;SDS011;49809;47.418;19.080;2023-04-06T12:43:02;5.60;;;2.87;;
63653;SDS011;49809;47.418;19.080;2023-04-06T12:46:37;3.75;;;2.20;;
63653;SDS011;49809;47.418;19.080;2023-04-06T12:49:54;4.30;;;2.58;;
63653;SDS011;49809;47.418;19.080;2023-04-06T12:53:12;5.65;;;3.20;;
63653;SDS011;49809;47.418;19.080;2023-04-06T12:56:56;8.05;;;3.28;;
63653;SDS011;49809;47.418;19.080;2023-04-06T17:52:59;9.95;;;2.42;;
63653;SDS011;49809;47.418;19.080;2023-04-06T18:01:11;3.78;;;2.90;;
63653;SDS011;49809;47.418;19.080;2023-04-06T18:39:27;6.15;;;3.58;;
63653;SDS011;49809;47.418;19.080;2023-04-06T18:43:13;5.50;;;3.67;;
63653;SDS011;49809;47.418;19.080;2023-04-06T18:58:18;6.80;;;3.45;;
63653;SDS011;49809;47.418;19.080;2023-04-06T19:02:25;5.18;;;2.60;;
63653;SDS011;49809;47.418;19.080;2023-04-06T19:06:03;7.97;;;4.17;;
63653;SDS011;49809;47.418;19.080;2023-04-06T21:16:04;11.15;;;5.43;;
63653;SDS011;49809;47.418;19.080;2023-04-06T21:19:49;9.65;;;5.15;;
63653;SDS011;49809;47.418;19.080;2023-04-06T21:23:19;6.95;;;4.03;;
63653;SDS011;49809;47.418;19.080;2023-04-06T21:26:26;7.45;;;4.85;;
63653;SDS011;49809;47.418;19.080;2023-04-06T21:29:49;9.48;;;5.70;;
63653;SDS011;49809;47.418;19.080;2023-04-06T21:33:39;7.85;;;4.87;;
63653;SDS011;49809;47.418;19.080;2023-04-06T21:41:12;6.60;;;4.62;;
63653;SDS011;49809;47.418;19.080;2023-04-06T21:44:17;10.05;;;5.15;;
63653;SDS011;49809;47.418;19.080;2023-04-06T21:48:03;8.45;;;4.37;;
63653;SDS011;49809;47.418;19.080;2023-04-06T21:51:41;10.90;;;5.55;;
63653;SDS011;49809;47.418;19.080;2023-04-06T21:55:28;5.75;;;4.32;;
63653;SDS011;49809;47.418;19.080;2023-04-06T21:59:00;8.38;;;3.70;;
63653;SDS011;49809;47.418;19.080;2023-04-06T22:02:40;7.82;;;4.35;;
63653;SDS011;49809;47.418;19.080;2023-04-06T22:13:36;6.07;;;3.87;;
63653;SDS011;49809;47.418;19.080;2023-04-06T22:16:59;7.35;;;4.75;;
63653;SDS011;49809;47.418;19.080;2023-04-06T22:20:48;8.82;;;5.10;;
63653;SDS011;49809;47.418;19.080;2023-04-06T22:24:34;9.77;;;5.18;;
63653;SDS011;49809;47.418;19.080;2023-04-06T22:28:10;13.40;;;4.87;;
63653;SDS011;49809;47.418;19.080;2023-04-06T22:31:43;9.63;;;5.60;;
63653;SDS011;49809;47.418;19.080;2023-04-06T22:35:15;8.60;;;5.18;;
63653;SDS011;49809;47.418;19.080;2023-04-06T22:38:40;7.40;;;4.20;;
63653;SDS011;49809;47.418;19.080;2023-04-06T22:42:10;10.93;;;4.80;;
63653;SDS011;49809;47.418;19.080;2023-04-06T22:46:01;6.53;;;4.70;;
63653;SDS011;49809;47.418;19.080;2023-04-06T22:49:47;5.90;;;4.20;;
63653;SDS011;49809;47.418;19.080;2023-04-06T22:53:16;8.48;;;4.97;;
63653;SDS011;49809;47.418;19.080;2023-04-06T22:56:52;7.10;;;4.62;;
63653;SDS011;49809;47.418;19.080;2023-04-06T23:00:45;6.80;;;4.85;;
63653;SDS011;49809;47.418;19.080;2023-04-06T23:03:48;10.20;;;4.97;;
63653;SDS011;49809;47.418;19.080;2023-04-06T23:07:41;8.38;;;4.82;;
63653;SDS011;49809;47.418;19.080;2023-04-06T23:11:10;7.37;;;5.22;;
63653;SDS011;49809;47.418;19.080;2023-04-06T23:14:58;8.95;;;5.20;;
63653;SDS011;49809;47.418;19.080;2023-04-06T23:21:59;6.65;;;4.57;;
63653;SDS011;49809;47.418;19.080;2023-04-06T23:25:44;6.03;;;4.32;;
63653;SDS011;49809;47.418;19.080;2023-04-06T23:29:48;11.15;;;5.12;;
63653;SDS011;49809;47.418;19.080;2023-04-06T23:33:24;6.37;;;4.53;;
63653;SDS011;49809;47.418;19.080;2023-04-06T23:37:17;9.73;;;6.10;;
63653;SDS011;49809;47.418;19.080;2023-04-06T23:40:39;9.13;;;5.05;;
63653;SDS011;49809;47.418;19.080;2023-04-06T23:44:36;7.50;;;5.50;;
63653;SDS011;49809;47.418;19.080;2023-04-06T23:52:09;10.60;;;5.47;;
63653;SDS011;49809;47.418;19.080;2023-04-06T23:55:46;7.85;;;4.45;;
63653;SDS011;49809;47.418;19.080;2023-04-06T23:59:30;8.30;;;5.40;;
